North Potrero (448) Station Data

Red Flag Warning: No
Fire Weather Zone: 250
SDGE Region: Mountain Empire
Lat/Lon: 32.63/-116.585

Observations

Time Wind Speed/Gust Temp(F) RH Fuel Moist Fuel Temp(F) Dewpt(F) Tmax(F) Tmin(F) Accum Precip 10-min Precip SL Press(mb)
2/27 11:40pm 219 14 G 20 47° 100% - - 47° 49.8° 44.2° - - -
2/27 11:20pm 194 17 G 27 47° 100% - - 47° 49.8° 44.2° - - -
2/27 11:10pm 197 16 G 24 47° 100% - - 47° 49.8° 44.2° - - -
2/27 11:00pm 190 11 G 17 47° 100% - - 47° 49.8° 44.2° - - -
2/27 10:50pm 173 9 G 15 47° 100% - - 47° 49.8° 44.2° - - -
2/27 10:40pm 179 10 G 15 47° 100% - - 47° 49.8° 44.2° - - -
2/27 10:30pm 172 9 G 14 47° 100% - - 47° 49.8° 44.2° - - -
2/27 10:20pm 161 13 G 18 47° 100% - - 47° 49.8° 44.2° - - -
2/27 10:10pm 157 14 G 17 47° 100% - - 47° 49.8° 44.2° - - -
2/27 10:00pm 151 14 G 18 47° 100% - - 47° 49.8° 44.2° - - -
2/27 9:50pm 157 12 G 17 48° 100% - - 48° 49.8° 44.2° - - -
2/27 9:40pm 163 13 G 16 48° 100% - - 48° 49.8° 44.2° - - -
2/27 9:30pm 168 11 G 17 47° 100% - - 47° 49.8° 44.2° - - -
2/27 9:20pm 153 13 G 19 47° 100% - - 47° 49.8° 44.2° - - -
2/27 9:10pm 162 10 G 15 47° 100% - - 47° 49.8° 44.2° - - -
2/27 9:00pm 165 9 G 16 47° 100% - - 47° 49.8° 44.2° - - -
2/27 8:50pm 170 8 G 12 47° 100% - - 47° 49.8° 44.2° - - -
2/27 8:40pm 178 9 G 15 47° 100% - - 47° 49.8° 44.2° - - -
2/27 8:30pm 175 9 G 13 47° 100% - - 47° 49.8° 44.2° - - -
2/27 8:20pm 170 9 G 13 47° 100% - - 47° 49.8° 44.2° - - -
2/27 8:10pm 157 11 G 15 47° 100% - - 47° 49.8° 44.2° - - -
2/27 8:00pm 149 12 G 17 47° 100% - - 47° 49.8° 44.2° - - -
2/27 7:50pm 151 12 G 15 47° 100% - - 47° 49.8° 44.2° - - -
2/27 7:40pm 152 12 G 17 47° 100% - - 47° 49.8° 44.2° - - -
2/27 7:30pm 155 11 G 15 47° 100% - - 47° 49.8° 44.2° - - -
2/27 7:20pm 156 12 G 17 47° 100% - - 47° 49.8° 44.2° - - -
2/27 7:10pm 154 14 G 19 47° 100% - - 47° 49.8° 44.2° - - -
2/27 7:00pm 152 13 G 19 47° 100% - - 47° 49.8° 44.2° - - -
2/27 6:50pm 142 13 G 19 47° 100% - - 47° 49.8° 44.2° - - -
2/27 6:40pm 138 13 G 19 47° 100% - - 47° 49.8° 44.2° - - -
2/27 6:30pm 143 9 G 14 47° 100% - - 47° 49.8° 44.2° - - -
2/27 6:20pm 145 10 G 16 47° 100% - - 47° 49.8° 44.2° - - -
2/27 6:10pm 150 10 G 15 47° 100% - - 47° 49.8° 44.2° - - -
2/27 6:00pm 143 9 G 13 47° 100% - - 47° 49.8° 44.2° - - -
2/27 5:50pm 147 6 G 13 47° 100% - - 47° 49.8° 44.2° - - -
2/27 5:40pm 163 7 G 11 47° 100% - - 47° 49.8° 44.2° - - -
2/27 5:30pm 164 7 G 10 47° 100% - - 47° 49.8° 44.2° - - -
2/27 5:20pm 175 7 G 9 48° 100% - - 48° 49.8° 44.2° - - -
2/27 5:10pm 170 10 G 16 48° 100% - - 48° 49.8° 44.2° - - -
2/27 5:00pm 165 14 G 20 48° 100% - - 48° 49.8° 44.2° - - -
2/27 4:50pm 164 14 G 18 48° 100% - - 48° 49.8° 44.2° - - -
2/27 4:40pm 165 14 G 21 48° 100% - - 48° 49.8° 44.2° - - -
2/27 4:30pm 171 12 G 21 48° 100% - - 48° 49.8° 44.2° - - -
2/27 4:20pm 174 10 G 15 48° 100% - - 48° 49.8° 44.2° - - -
2/27 4:10pm 170 12 G 17 48° 100% - - 48° 49.8° 44.2° - - -
2/27 4:00pm 176 12 G 19 48° 100% - - 48° 49.8° 44.2° - - -
2/27 3:50pm 178 10 G 15 48° 100% - - 48° 49.8° 44.2° - - -
2/27 3:40pm 182 13 G 20 48° 100% - - 48° 49.8° 44.2° - - -
2/27 3:30pm 184 12 G 18 48° 100% - - 48° 49.8° 44.2° - - -
2/27 3:20pm 181 11 G 17 48° 100% - - 48° 49.8° 44.2° - - -
2/27 3:10pm 175 13 G 18 48° 100% - - 48° 49.8° 44.2° - - -
2/27 3:00pm 178 13 G 18 48° 100% - - 48° 49.8° 44.2° - - -
2/27 2:50pm 184 14 G 20 48° 100% - - 48° 49.8° 44.2° - - -
2/27 2:40pm 184 16 G 22 48° 100% - - 48° 49.8° 44.2° - - -
2/27 2:30pm 181 16 G 23 48° 100% - - 48° 49.8° 44.2° - - -
2/27 2:20pm 179 15 G 22 48° 100% - - 48° 49.8° 44.2° - - -
2/27 2:10pm 179 13 G 22 48° 100% - - 48° 49.8° 44.2° - - -
2/27 2:00pm 177 15 G 23 48° 100% - - 48° 49.8° 44.2° - - -
2/27 1:50pm 182 15 G 20 48° 100% - - 48° 49.8° 44.2° - - -
2/27 1:40pm 181 16 G 23 48° 100% - - 48° 49.8° 44.2° - - -
2/27 1:30pm 180 16 G 24 48° 100% - - 48° 49.8° 44.2° - - -
2/27 1:20pm 173 17 G 26 48° 100% - - 48° 49.8° 44.2° - - -
2/27 1:10pm 174 17 G 25 48° 100% - - 48° 49.8° 44.2° - - -
2/27 1:00pm 186 16 G 29 48° 100% - - 48° 49.8° 44.2° - - -
2/27 12:40pm 184 16 G 25 48° 100% - - 48° 49.8° 44.2° - - -
2/27 12:30pm 177 15 G 29 48° 100% - - 48° 49.8° 44.2° - - -
2/27 12:20pm 181 15 G 21 49° 100% - - 49° 49.8° 44.2° - - -
2/27 12:10pm 177 15 G 21 49° 100% - - 49° 49.8° 44.2° - - -
2/27 12:00pm 177 12 G 19 49° 100% - - 49° 49.8° 44.2° - - -
2/27 11:50am 188 12 G 18 49° 100% - - 49° 49.8° 44.2° - - -
2/27 11:40am 186 13 G 19 49° 100% - - 49° 49.8° 44.2° - - -
2/27 11:30am 180 11 G 17 49° 100% - - 49° 49.8° 44.2° - - -
2/27 11:20am 181 13 G 19 49° 100% - - 49° 49.8° 44.2° - - -
2/27 11:10am 177 16 G 28 49° 100% - - 49° 49.8° 44.2° - - -
2/27 11:00am 183 13 G 22 49° 100% - - 49° 49.8° 44.2° - - -
2/27 10:50am 184 14 G 20 49° 100% - - 49° 49.8° 44.2° - - -
2/27 10:40am 173 15 G 22 49° 100% - - 49° 49.8° 44.2° - - -
2/27 10:30am 181 11 G 22 49° 100% - - 49° 49.8° 44.2° - - -
2/27 10:20am 189 10 G 15 49° 100% - - 49° 49.8° 44.2° - - -
2/27 10:10am 182 14 G 24 49° 100% - - 49° 49.8° 44.2° - - -
2/27 10:00am 162 11 G 15 49° 100% - - 49° 49.8° 44.2° - - -
2/27 9:50am 187 8 G 12 49° 100% - - 49° 49.8° 44.2° - - -
2/27 9:40am 159 12 G 16 49° 100% - - 49° 49.8° 44.2° - - -
2/27 9:30am 159 14 G 19 49° 100% - - 49° 49.8° 44.2° - - -
2/27 9:20am 149 15 G 22 49° 100% - - 49° 49.6° 44.2° - - -
2/27 9:10am 156 15 G 20 49° 100% - - 49° 49° 44.2° - - -
2/27 9:00am 173 13 G 21 48° 100% - - 48° 49° 44.2° - - -
2/27 8:50am 174 15 G 25 49° 100% - - 49° 49° 44.2° - - -
2/27 8:40am 174 14 G 23 49° 100% - - 49° 49° 44.2° - - -
2/27 8:30am 183 13 G 17 48° 100% - - 48° 49° 44.2° - - -
2/27 8:20am 183 12 G 19 48° 100% - - 48° 49° 44.2° - - -
2/27 8:10am 192 8 G 15 49° 100% - - 49° 49° 44.2° - - -
2/27 8:00am 196 8 G 12 48° 100% - - 48° 49° 44.2° - - -
2/27 7:50am 198 5 G 8 48° 100% - - 48° 48.9° 44.2° - - -
2/27 7:40am 190 5 G 8 48° 100% - - 48° 48.9° 44.2° - - -
2/27 7:30am 187 5 G 8 48° 100% - - 48° 48.8° 44.2° - - -
2/27 7:20am 180 7 G 11 48° 100% - - 48° 48.8° 44.2° - - -
2/27 7:10am 186 9 G 13 48° 100% - - 48° 48.8° 44.2° - - -
2/27 7:00am 188 8 G 12 48° 100% - - 48° 48.8° 44.2° - - -
2/27 6:50am 184 9 G 15 48° 100% - - 48° 48.8° 44.2° - - -
2/27 6:40am 184 9 G 13 48° 100% - - 48° 48.8° 44.2° - - -
2/27 6:30am 179 10 G 14 48° 100% - - 48° 48.8° 44.2° - - -
2/27 6:20am 182 9 G 13 48° 100% - - 48° 48.8° 44.2° - - -
2/27 6:10am 180 9 G 14 48° 100% - - 48° 48.8° 44.2° - - -
2/27 6:00am 180 12 G 16 48° 100% - - 48° 48.8° 44.2° - - -
2/27 5:50am 175 13 G 17 48° 100% - - 48° 48.7° 44.2° - - -
2/27 5:40am 168 12 G 17 48° 100% - - 48° 48.7° 44.2° - - -
2/27 5:30am 171 11 G 18 48° 100% - - 48° 48.7° 44.2° - - -
2/27 5:20am 171 12 G 17 48° 100% - - 48° 48.7° 44.2° - - -
2/27 5:10am 171 13 G 19 48° 100% - - 48° 48.7° 44.2° - - -
2/27 5:00am 168 14 G 21 48° 100% - - 48° 48.5° 44.2° - - -
2/27 4:50am 165 12 G 16 48° 100% - - 48° 48.3° 44.2° - - -
2/27 4:40am 164 11 G 14 48° 100% - - 48° 48.3° 44.2° - - -
2/27 4:30am 171 8 G 14 48° 100% - - 48° 48° 44.2° - - -
2/27 4:20am 183 7 G 10 47° 100% - - 47° 48° 44.2° - - -
2/27 4:10am 188 6 G 9 47° 100% - - 47° 47.7° 44.2° - - -
2/27 4:00am 165 1 G 6 46° 100% - - 46° 46.8° 44.2° - - -
2/27 3:50am 0 0 G 0 46° 100% - - 46° 46.1° 44.2° - - -
2/27 3:40am 0 0 G 0 46° 100% - - 46° 46° 44.2° - - -
2/27 3:30am 0 0 G 0 45° 100% - - 45° 46° 44.2° - - -
2/27 3:20am 354 0 G 1 45° 100% - - 45° 46° 44.2° - - -
2/27 3:10am 9 0 G 1 45° 100% - - 45° 45.8° 44.2° - - -
2/27 3:00am 8 1 G 2 45° 100% - - 45° 45.8° 44.2° - - -
2/27 2:50am 13 2 G 4 45° 100% - - 45° 45.6° 44.2° - - -
2/27 2:40am 357 3 G 4 45° 100% - - 45° 45.6° 44.2° - - -
2/27 2:30am 345 3 G 4 45° 100% - - 45° 45.5° 44.2° - - -
2/27 2:20am 332 2 G 3 45° 100% - - 45° 45.5° 44.2° - - -
2/27 2:10am 338 1 G 2 45° 100% - - 45° 45.5° 44.2° - - -
2/27 2:00am 28 0 G 1 45° 100% - - 45° 45.5° 44.2° - - -
2/27 1:50am 28 0 G 1 45° 100% - - 45° 45.5° 44.2° - - -
2/27 1:40am 20 1 G 2 45° 100% - - 45° 45.5° 44.2° - - -
2/27 1:30am 18 1 G 2 45° 100% - - 45° 45.5° 44.2° - - -
2/27 1:20am 2 2 G 3 45° 100% - - 45° 45.5° 44.2° - - -
2/27 1:10am 338 2 G 3 45° 100% - - 45° 45.5° 44.2° - - -
2/27 1:00am 0 0 G 0 45° 100% - - 45° 45.5° 44.2° - - -
2/27 12:50am 168 1 G 1 45° 100% - - 45° 45.3° 44.2° - - -
2/27 12:40am 153 1 G 1 45° 100% - - 45° 45.3° 44.2° - - -
2/27 12:30am 143 1 G 2 45° 100% - - 45° 45.1° 44.2° - - -
2/27 12:20am 135 1 G 2 45° 100% - - 45° 45.1° 44.2° - - -
2/27 12:10am 135 1 G 2 44° 100% - - 44° 45° 44.2° - - -
2/27 12:00am 129 1 G 1 44° 100% - - 44° 48.2° 40.4° - - -
2/26 11:50pm 190 0 G 2 44° 100% - - 44° 48.2° 40.4° - - -
2/26 11:40pm 173 1 G 2 44° 100% - - 44° 48.2° 40.4° - - -
2/26 11:30pm 202 0 G 2 44° 100% - - 44° 48.2° 40.4° - - -
2/26 11:20pm 251 1 G 3 44° 100% - - 44° 48.2° 40.4° - - -
2/26 11:10pm 243 2 G 4 44° 100% - - 44° 48.2° 40.4° - - -
2/26 11:00pm 224 3 G 5 44° 100% - - 44° 48.2° 40.4° - - -
2/26 10:50pm 221 3 G 5 44° 100% - - 44° 48.2° 40.4° - - -
2/26 10:40pm 222 4 G 6 44° 100% - - 44° 48.2° 40.4° - - -
2/26 10:30pm 224 3 G 4 44° 100% - - 44° 48.2° 40.4° - - -
2/26 10:20pm 222 4 G 5 44° 100% - - 44° 48.2° 40.4° - - -
2/26 10:10pm 229 3 G 5 44° 100% - - 44° 48.2° 40.4° - - -
2/26 10:00pm 226 4 G 6 44° 100% - - 44° 48.2° 40.4° - - -
2/26 9:50pm 211 4 G 6 44° 100% - - 44° 48.2° 40.4° - - -
2/26 9:40pm 206 5 G 7 44° 100% - - 44° 48.2° 40.4° - - -
2/26 9:30pm 215 5 G 7 44° 100% - - 44° 48.2° 40.4° - - -
2/26 9:20pm 223 6 G 8 45° 100% - - 45° 48.2° 40.4° - - -
2/26 9:10pm 224 5 G 8 45° 100% - - 45° 48.2° 40.4° - - -
2/26 9:00pm 214 7 G 11 45° 100% - - 45° 48.2° 40.4° - - -
2/26 8:50pm 215 8 G 11 45° 100% - - 45° 48.2° 40.4° - - -
2/26 8:40pm 228 7 G 10 44° 100% - - 44° 48.2° 40.4° - - -
2/26 8:30pm 214 8 G 11 44° 100% - - 44° 48.2° 40.4° - - -
2/26 8:20pm 208 8 G 11 44° 100% - - 44° 48.2° 40.4° - - -
2/26 8:10pm 210 9 G 13 44° 100% - - 44° 48.2° 40.4° - - -
2/26 8:00pm 214 8 G 11 45° 100% - - 45° 48.2° 40.4° - - -
2/26 7:50pm 202 8 G 12 45° 100% - - 45° 48.2° 40.4° - - -
2/26 7:40pm 209 10 G 16 45° 100% - - 45° 48.2° 40.4° - - -
2/26 7:30pm 221 6 G 10 45° 100% - - 45° 48.2° 40.4° - - -
2/26 7:20pm 202 8 G 13 45° 100% - - 45° 48.2° 40.4° - - -
2/26 7:10pm 208 8 G 14 45° 100% - - 45° 48.2° 40.4° - - -
2/26 7:00pm 214 6 G 16 45° 100% - - 45° 48.2° 40.4° - - -
2/26 6:50pm 249 6 G 10 44° 100% - - 44° 48.2° 40.4° - - -
2/26 6:40pm 234 4 G 9 44° 100% - - 44° 48.2° 40.4° - - -
2/26 6:30pm 249 6 G 11 45° 100% - - 45° 48.2° 40.4° - - -
2/26 6:20pm 239 7 G 11 45° 100% - - 45° 48.2° 40.4° - - -
2/26 6:10pm 232 8 G 11 45° 100% - - 45° 48.2° 40.4° - - -
2/26 6:00pm 225 8 G 13 45° 100% - - 45° 48.2° 40.4° - - -
2/26 5:50pm 228 10 G 14 45° 100% - - 45° 48.2° 40.4° - - -
2/26 5:40pm 227 8 G 13 45° 100% - - 45° 48.2° 40.4° - - -
2/26 5:30pm 231 8 G 12 46° 99% - - 45° 48.2° 40.4° - - -
2/26 5:20pm 229 9 G 13 46° 96% - - 45° 48.2° 40.4° - - -
2/26 5:10pm 223 9 G 14 46° 91% - - 44° 48.2° 40.4° - - -
2/26 5:00pm 226 10 G 14 46° 93% - - 44° 48.2° 40.4° - - -
2/26 4:50pm 227 9 G 14 47° 93% - - 45° 48.2° 40.4° - - -